Time;durP1;ratioP1;P1;durP2;ratioP2;P2;SDS_P1;SDS_P2;PMS_P1;PMS_P2;Temp;Humidity;BMP_temperature;BMP_pressure;BME280_temperature;BME280_humidity;BME280_pressure;Samples;Min_cycle;Max_cycle;Signal;HPM_P1;HPM_P2
2021/01/22 00:00:40;;;;;;;127.05;61.73;;;;;;;;;;1821139;79;21293;-84
2021/01/22 00:03:06;;;;;;;128.97;62.27;;;;;;;;;;1820859;79;21151;-81
2021/01/22 00:05:32;;;;;;;124.62;60.90;;;;;;;;;;1820705;79;21115;-81
2021/01/22 00:07:58;;;;;;;140.90;63.08;;;;;;;;;;1821616;79;21152;-83
2021/01/22 00:10:25;;;;;;;111.32;51.83;;;;;;;;;;1821468;79;21171;-83
2021/01/22 00:12:51;;;;;;;98.40;44.63;;;;;;;;;;1821305;79;21285;-82
2021/01/22 00:15:17;;;;;;;121.55;56.33;;;;;;;;;;1821467;79;21163;-81
2021/01/22 00:17:43;;;;;;;110.70;54.25;;;;;;;;;;1821258;79;21151;-82
2021/01/22 00:20:10;;;;;;;105.83;50.92;;;;;;;;;;1821234;79;21143;-81
2021/01/22 00:22:36;;;;;;;97.47;48.45;;;;;;;;;;1820775;77;21161;-81
2021/01/22 00:25:03;;;;;;;94.77;45.63;;;;;;;;;;1820835;79;21175;-81
2021/01/22 00:27:30;;;;;;;111.68;51.68;;;;;;;;;;1820979;79;21574;-80
2021/01/22 00:29:56;;;;;;;110.80;53.70;;;;;;;;;;1821019;79;21142;-82
2021/01/22 00:32:22;;;;;;;114.90;54.25;;;;;;;;;;1820883;79;21148;-81
2021/01/22 00:34:49;;;;;;;125.25;59.03;;;;;;;;;;1820729;79;21151;-81
2021/01/22 00:37:15;;;;;;;121.53;57.65;;;;;;;;;;1820782;79;21155;-82
2021/01/22 00:39:41;;;;;;;123.67;59.13;;;;;;;;;;1820774;79;21182;-82
2021/01/22 00:42:08;;;;;;;121.47;61.77;;;;;;;;;;1820678;79;21140;-83
2021/01/22 00:44:34;;;;;;;118.30;57.95;;;;;;;;;;1820757;79;21201;-83
2021/01/22 00:47:00;;;;;;;126.30;58.65;;;;;;;;;;1820773;79;21171;-82
2021/01/22 00:49:26;;;;;;;130.37;60.45;;;;;;;;;;1820646;79;21690;-81
2021/01/22 00:51:53;;;;;;;126.05;59.03;;;;;;;;;;1820698;77;21166;-82
2021/01/22 00:54:19;;;;;;;128.65;60.67;;;;;;;;;;1820732;79;21172;-81
2021/01/22 00:56:45;;;;;;;131.10;60.00;;;;;;;;;;1820739;79;21572;-81
2021/01/22 00:59:11;;;;;;;130.57;61.70;;;;;;;;;;1821112;79;21317;-81
2021/01/22 01:01:38;;;;;;;121.62;59.70;;;;;;;;;;1820819;79;21575;-83
2021/01/22 01:04:04;;;;;;;126.47;60.00;;;;;;;;;;1820682;79;21144;-82
2021/01/22 01:06:30;;;;;;;122.60;59.67;;;;;;;;;;1820799;79;21608;-81
2021/01/22 01:08:57;;;;;;;124.42;60.08;;;;;;;;;;1820764;79;21158;-81
2021/01/22 01:11:23;;;;;;;124.27;58.40;;;;;;;;;;1821037;79;21171;-81
2021/01/22 01:13:50;;;;;;;120.77;58.55;;;;;;;;;;1820773;79;21116;-81
2021/01/22 01:16:16;;;;;;;109.17;51.35;;;;;;;;;;1820763;79;21603;-82
2021/01/22 01:18:42;;;;;;;106.78;53.00;;;;;;;;;;1820721;79;21148;-81
2021/01/22 01:21:08;;;;;;;128.75;57.48;;;;;;;;;;1820711;77;21166;-80
2021/01/22 01:23:46;;;;;;;113.62;53.38;;;;;;;;;;1820816;79;21143;-82
2021/01/22 01:26:12;;;;;;;127.40;57.90;;;;;;;;;;1820851;79;21598;-81
2021/01/22 01:28:39;;;;;;;116.55;55.05;;;;;;;;;;1820751;79;21562;-82
2021/01/22 01:31:05;;;;;;;124.58;56.08;;;;;;;;;;1820757;79;21170;-80
2021/01/22 01:33:31;;;;;;;120.05;57.75;;;;;;;;;;1821046;79;21108;-82
2021/01/22 01:35:57;;;;;;;123.67;55.45;;;;;;;;;;1820715;79;21602;-80
2021/01/22 01:38:23;;;;;;;126.67;59.88;;;;;;;;;;1820758;79;21274;-82
2021/01/22 01:40:49;;;;;;;119.53;56.55;;;;;;;;;;1820721;79;21154;-80
2021/01/22 01:43:15;;;;;;;121.05;57.83;;;;;;;;;;1820970;79;21142;-81
2021/01/22 01:45:42;;;;;;;120.00;59.27;;;;;;;;;;1821323;79;21154;-82
2021/01/22 01:48:09;;;;;;;123.72;57.95;;;;;;;;;;1821568;79;21574;-82
2021/01/22 01:50:35;;;;;;;126.78;58.68;;;;;;;;;;1821494;79;21212;-81
2021/01/22 01:53:02;;;;;;;125.67;59.27;;;;;;;;;;1821361;77;21131;-81
2021/01/22 01:55:28;;;;;;;115.70;54.35;;;;;;;;;;1821352;79;21609;-80
2021/01/22 01:57:54;;;;;;;115.00;53.98;;;;;;;;;;1820945;79;21136;-80
2021/01/22 02:00:21;;;;;;;117.05;54.05;;;;;;;;;;1820823;79;21108;-81
2021/01/22 02:02:47;;;;;;;110.78;52.73;;;;;;;;;;1820716;79;21147;-82
2021/01/22 02:05:13;;;;;;;109.57;51.18;;;;;;;;;;1820778;79;21172;-82
2021/01/22 02:07:39;;;;;;;111.97;52.55;;;;;;;;;;1820867;79;21712;-81
2021/01/22 02:10:06;;;;;;;105.03;50.52;;;;;;;;;;1820609;79;21591;-83
2021/01/22 02:12:32;;;;;;;109.20;51.63;;;;;;;;;;1820938;79;21167;-81
2021/01/22 02:14:59;;;;;;;106.00;51.37;;;;;;;;;;1820936;79;21151;-81
2021/01/22 02:17:25;;;;;;;101.27;48.28;;;;;;;;;;1820950;79;21127;-82
2021/01/22 02:20:10;;;;;;;94.10;45.43;;;;;;;;;;1821005;79;21168;-82
2021/01/22 02:22:38;;;;;;;100.22;47.27;;;;;;;;;;1821037;77;21187;-81
2021/01/22 02:25:07;;;;;;;106.07;49.90;;;;;;;;;;1821111;79;21116;-82
2021/01/22 02:27:33;;;;;;;111.40;52.23;;;;;;;;;;1820999;79;21144;-81
2021/01/22 02:29:59;;;;;;;98.78;46.33;;;;;;;;;;1820807;79;21116;-83
2021/01/22 02:32:25;;;;;;;95.05;44.00;;;;;;;;;;1821025;79;21591;-82
2021/01/22 02:34:51;;;;;;;98.15;43.92;;;;;;;;;;1821196;79;21159;-81
2021/01/22 02:37:18;;;;;;;88.82;41.90;;;;;;;;;;1821070;79;21132;-80
2021/01/22 02:39:46;;;;;;;85.32;41.35;;;;;;;;;;1821173;79;21162;-82
2021/01/22 02:42:12;;;;;;;81.67;40.30;;;;;;;;;;1820483;79;21135;-81
2021/01/22 02:44:38;;;;;;;89.17;41.83;;;;;;;;;;1821069;79;21163;-81
2021/01/22 02:47:06;;;;;;;88.37;41.40;;;;;;;;;;1820914;79;21120;-82
2021/01/22 02:49:32;;;;;;;73.55;35.13;;;;;;;;;;1819739;79;21155;-84
2021/01/22 02:51:59;;;;;;;81.35;38.65;;;;;;;;;;1827985;77;21138;-81
2021/01/22 02:54:25;;;;;;;70.05;35.30;;;;;;;;;;1841732;78;21167;-81
2021/01/22 02:56:56;;;;;;;80.87;39.75;;;;;;;;;;1841788;78;21285;-81
2021/01/22 02:59:24;;;;;;;79.32;37.25;;;;;;;;;;1841412;78;21550;-81
2021/01/22 03:01:55;;;;;;;74.45;35.05;;;;;;;;;;1811562;78;21169;-81
2021/01/22 03:04:22;;;;;;;87.88;40.30;;;;;;;;;;1841530;78;21208;-81
2021/01/22 03:06:48;;;;;;;76.55;38.02;;;;;;;;;;1841753;78;21243;-81
2021/01/22 03:09:16;;;;;;;88.33;40.10;;;;;;;;;;1842130;78;21158;-80
2021/01/22 03:11:43;;;;;;;80.45;40.63;;;;;;;;;;1840123;78;21272;-80
2021/01/22 03:14:09;;;;;;;77.47;37.38;;;;;;;;;;1841190;78;21594;-81
2021/01/22 03:16:35;;;;;;;84.25;38.58;;;;;;;;;;1841749;78;21145;-82
2021/01/22 03:19:05;;;;;;;77.32;37.67;;;;;;;;;;1841677;78;21618;-80
2021/01/22 03:21:31;;;;;;;76.25;36.40;;;;;;;;;;1841757;76;21567;-82
2021/01/22 03:23:57;;;;;;;70.90;35.75;;;;;;;;;;1841532;78;21150;-81
2021/01/22 03:26:23;;;;;;;86.57;38.85;;;;;;;;;;1841527;78;21166;-80
2021/01/22 03:28:49;;;;;;;79.00;36.70;;;;;;;;;;1841465;78;21630;-80
2021/01/22 03:31:16;;;;;;;81.60;36.33;;;;;;;;;;1841852;78;21115;-81
2021/01/22 03:33:42;;;;;;;70.72;33.00;;;;;;;;;;1841574;78;21704;-81
2021/01/22 03:36:08;;;;;;;68.67;30.88;;;;;;;;;;1841841;78;21141;-81
2021/01/22 03:38:34;;;;;;;74.67;33.35;;;;;;;;;;1841814;78;21136;-82
2021/01/22 03:41:00;;;;;;;74.65;34.85;;;;;;;;;;1841505;78;21130;-81
2021/01/22 03:43:27;;;;;;;76.20;36.40;;;;;;;;;;1841714;78;21811;-81
2021/01/22 03:45:53;;;;;;;77.12;35.95;;;;;;;;;;1841713;78;21570;-81
2021/01/22 03:48:19;;;;;;;67.60;34.85;;;;;;;;;;1841668;78;21119;-81
2021/01/22 03:50:45;;;;;;;76.02;37.17;;;;;;;;;;1841726;78;21154;-81
2021/01/22 03:53:11;;;;;;;74.05;36.40;;;;;;;;;;1826347;76;21162;-80
2021/01/22 03:55:38;;;;;;;81.70;38.17;;;;;;;;;;1820783;79;21135;-80
2021/01/22 03:58:04;;;;;;;77.35;36.08;;;;;;;;;;1820935;79;21120;-80
2021/01/22 04:00:30;;;;;;;64.30;30.27;;;;;;;;;;1820532;79;21169;-81
2021/01/22 04:02:57;;;;;;;70.80;33.80;;;;;;;;;;1820777;79;21150;-81
2021/01/22 04:05:23;;;;;;;58.02;28.15;;;;;;;;;;1820721;79;21180;-82
2021/01/22 04:07:49;;;;;;;70.00;33.48;;;;;;;;;;1820880;79;21291;-82
2021/01/22 04:10:16;;;;;;;69.82;33.45;;;;;;;;;;1820799;79;21113;-83
2021/01/22 04:12:42;;;;;;;71.92;34.25;;;;;;;;;;1820705;79;21149;-82
2021/01/22 04:15:08;;;;;;;72.75;35.50;;;;;;;;;;1820912;79;21126;-81
2021/01/22 04:17:34;;;;;;;72.45;35.35;;;;;;;;;;1821277;79;21557;-82
2021/01/22 04:20:01;;;;;;;60.12;29.15;;;;;;;;;;1820848;79;21141;-80
2021/01/22 04:22:27;;;;;;;71.15;33.25;;;;;;;;;;1820763;77;21589;-82
2021/01/22 04:24:54;;;;;;;56.40;29.02;;;;;;;;;;1820862;79;21181;-81
2021/01/22 04:27:20;;;;;;;69.60;32.63;;;;;;;;;;1820686;79;21576;-81
2021/01/22 04:29:46;;;;;;;57.62;28.35;;;;;;;;;;1820629;79;21121;-82
2021/01/22 04:32:12;;;;;;;57.58;28.30;;;;;;;;;;1820643;79;21681;-81
2021/01/22 04:34:39;;;;;;;59.38;30.43;;;;;;;;;;1820940;79;21141;-82
2021/01/22 04:37:05;;;;;;;63.33;31.77;;;;;;;;;;1820633;79;21181;-81
2021/01/22 04:39:32;;;;;;;57.67;26.75;;;;;;;;;;1820787;79;21140;-80
2021/01/22 04:41:58;;;;;;;55.92;28.45;;;;;;;;;;1820753;79;21145;-82
2021/01/22 04:44:25;;;;;;;52.08;24.90;;;;;;;;;;1820953;79;21580;-81
2021/01/22 04:46:52;;;;;;;49.40;23.75;;;;;;;;;;1820906;79;21149;-81
2021/01/22 04:49:21;;;;;;;47.50;24.95;;;;;;;;;;1820801;79;21239;-80
2021/01/22 04:51:49;;;;;;;49.60;24.80;;;;;;;;;;1820899;77;21161;-80
2021/01/22 04:54:17;;;;;;;51.05;25.77;;;;;;;;;;1820480;79;21281;-81
2021/01/22 04:56:44;;;;;;;45.73;22.35;;;;;;;;;;1820924;78;21290;-82
2021/01/22 04:59:15;;;;;;;36.33;18.15;;;;;;;;;;1821053;79;21168;-83
2021/01/22 05:01:42;;;;;;;34.83;18.40;;;;;;;;;;1819858;78;21156;-81
2021/01/22 05:04:09;;;;;;;39.30;19.17;;;;;;;;;;1820975;79;21294;-80
2021/01/22 05:06:35;;;;;;;40.90;22.50;;;;;;;;;;1820786;79;21155;-81
2021/01/22 05:09:01;;;;;;;38.42;20.52;;;;;;;;;;1820693;79;21162;-82
2021/01/22 05:11:27;;;;;;;44.65;23.55;;;;;;;;;;1820775;79;21636;-81
2021/01/22 05:13:53;;;;;;;48.58;22.70;;;;;;;;;;1820967;79;21171;-81
2021/01/22 05:16:23;;;;;;;57.83;25.85;;;;;;;;;;1820766;79;21147;-81
2021/01/22 05:18:48;;;;;;;48.45;24.75;;;;;;;;;;1820805;78;21144;-83
2021/01/22 05:21:14;;;;;;;53.08;25.90;;;;;;;;;;1821267;79;21174;-82
2021/01/22 05:23:40;;;;;;;51.63;25.17;;;;;;;;;;1821013;77;21136;-81
2021/01/22 05:26:07;;;;;;;49.80;26.27;;;;;;;;;;1820809;79;21630;-81
2021/01/22 05:28:37;;;;;;;57.65;27.67;;;;;;;;;;1821067;79;21108;-82
2021/01/22 05:31:05;;;;;;;54.42;26.80;;;;;;;;;;1820975;79;21285;-82
2021/01/22 05:33:31;;;;;;;57.13;26.52;;;;;;;;;;1820943;79;21567;-84
2021/01/22 05:35:57;;;;;;;55.30;27.52;;;;;;;;;;1820868;79;21160;-82
2021/01/22 05:38:40;;;;;;;66.42;30.30;;;;;;;;;;1821135;79;21144;-82
2021/01/22 05:41:07;;;;;;;55.20;26.97;;;;;;;;;;1796200;79;21571;-82
2021/01/22 05:43:34;;;;;;;58.75;28.40;;;;;;;;;;1820738;79;21233;-81
2021/01/22 05:46:00;;;;;;;56.53;27.05;;;;;;;;;;1820964;79;21116;-80
2021/01/22 05:48:31;;;;;;;56.90;26.93;;;;;;;;;;1820710;79;21183;-82
2021/01/22 05:50:55;;;;;;;53.23;25.17;;;;;;;;;;1819737;78;21583;-81
2021/01/22 05:53:21;;;;;;;53.90;28.12;;;;;;;;;;1832769;77;21559;-83
2021/01/22 05:56:06;;;;;;;60.08;28.60;;;;;;;;;;1841538;78;21320;-81
2021/01/22 05:58:32;;;;;;;55.27;26.53;;;;;;;;;;1841760;78;21261;-81
2021/01/22 06:01:06;;;;;;;56.08;26.25;;;;;;;;;;1841564;78;21432;-80
2021/01/22 06:03:32;;;;;;;55.92;25.50;;;;;;;;;;1841456;78;21334;-83
2021/01/22 06:05:59;;;;;;;54.75;25.27;;;;;;;;;;1841631;77;21123;-81
2021/01/22 06:08:25;;;;;;;57.53;25.97;;;;;;;;;;1841587;78;21162;-82
2021/01/22 06:10:51;;;;;;;57.90;26.00;;;;;;;;;;1841925;77;21143;-82
2021/01/22 06:13:19;;;;;;;43.05;23.25;;;;;;;;;;1841527;77;21175;-83
2021/01/22 06:15:45;;;;;;;49.63;23.67;;;;;;;;;;1841460;77;21359;-82
2021/01/22 06:18:15;;;;;;;45.60;23.45;;;;;;;;;;1841552;77;21161;-84
2021/01/22 06:20:40;;;;;;;50.30;26.37;;;;;;;;;;1841514;76;21142;-81
2021/01/22 06:23:08;;;;;;;49.08;23.62;;;;;;;;;;1841665;76;21281;-81
2021/01/22 06:25:34;;;;;;;45.03;23.92;;;;;;;;;;1841193;76;21142;-80
2021/01/22 06:28:04;;;;;;;48.83;23.47;;;;;;;;;;1841656;77;21163;-81
2021/01/22 06:30:32;;;;;;;65.35;24.23;;;;;;;;;;1841471;77;21734;-82
2021/01/22 06:32:59;;;;;;;40.98;20.90;;;;;;;;;;1841185;77;21382;-81
2021/01/22 06:35:26;;;;;;;42.15;20.40;;;;;;;;;;1841783;78;21261;-82
2021/01/22 06:37:52;;;;;;;40.55;20.15;;;;;;;;;;1841626;77;21135;-80
2021/01/22 06:40:19;;;;;;;43.38;22.02;;;;;;;;;;1841970;77;21273;-82
2021/01/22 06:42:45;;;;;;;49.75;23.00;;;;;;;;;;1841765;77;21599;-81
2021/01/22 06:45:12;;;;;;;46.53;21.40;;;;;;;;;;1841809;77;21115;-79
2021/01/22 06:47:38;;;;;;;47.00;22.48;;;;;;;;;;1841960;77;21285;-80
2021/01/22 06:50:20;;;;;;;50.17;23.42;;;;;;;;;;1841852;77;21729;-80
2021/01/22 06:52:55;;;;;;;45.88;23.30;;;;;;;;;;1841928;76;21269;-81
2021/01/22 06:55:21;;;;;;;44.15;22.10;;;;;;;;;;1835685;77;21646;-81
2021/01/22 06:57:49;;;;;;;60.03;29.18;;;;;;;;;;1841790;77;21578;-82
2021/01/22 07:00:32;;;;;;;70.28;33.33;;;;;;;;;;1840745;78;21598;-83
2021/01/22 07:02:58;;;;;;;52.20;26.90;;;;;;;;;;1805190;78;21175;-82
2021/01/22 07:05:33;;;;;;;56.23;28.40;;;;;;;;;;1829864;77;21299;-81
2021/01/22 07:07:59;;;;;;;53.25;26.93;;;;;;;;;;1842330;78;21151;-81
2021/01/22 07:10:44;;;;;;;53.92;27.73;;;;;;;;;;1841962;77;21713;-81
2021/01/22 07:13:28;;;;;;;51.50;28.10;;;;;;;;;;1842251;77;21212;-83
2021/01/22 07:16:03;;;;;;;47.65;25.27;;;;;;;;;;1841799;77;21131;-83
2021/01/22 07:18:29;;;;;;;52.58;26.77;;;;;;;;;;1841025;77;21143;-83
2021/01/22 07:21:14;;;;;;;57.85;27.87;;;;;;;;;;1811408;78;21566;-82
2021/01/22 07:23:42;;;;;;;50.45;25.15;;;;;;;;;;1841726;76;21111;-82
2021/01/22 07:26:08;;;;;;;55.35;24.52;;;;;;;;;;1841396;77;21147;-82
2021/01/22 07:28:35;;;;;;;50.70;24.55;;;;;;;;;;1811322;78;21139;-83
2021/01/22 07:31:01;;;;;;;47.53;24.77;;;;;;;;;;1811265;78;21139;-83
2021/01/22 07:33:32;;;;;;;58.83;26.40;;;;;;;;;;1841580;77;21127;-81
2021/01/22 07:36:19;;;;;;;48.35;24.98;;;;;;;;;;1841638;77;21586;-82
2021/01/22 07:38:46;;;;;;;55.45;25.52;;;;;;;;;;1841851;78;21143;-83
2021/01/22 07:41:13;;;;;;;50.25;25.02;;;;;;;;;;1841580;77;21309;-82
2021/01/22 07:43:40;;;;;;;54.70;24.30;;;;;;;;;;1841997;78;21147;-83
2021/01/22 07:46:08;;;;;;;52.27;25.82;;;;;;;;;;1841674;77;21139;-82
2021/01/22 07:48:34;;;;;;;50.80;25.05;;;;;;;;;;1841283;76;21178;-81
2021/01/22 07:51:02;;;;;;;48.28;24.98;;;;;;;;;;1841732;77;21147;-83
2021/01/22 07:53:29;;;;;;;52.10;25.82;;;;;;;;;;1828166;76;21631;-83
2021/01/22 07:55:55;;;;;;;46.83;25.92;;;;;;;;;;1821189;79;21155;-83
2021/01/22 07:58:21;;;;;;;53.02;28.27;;;;;;;;;;1820790;79;21144;-83
2021/01/22 08:00:48;;;;;;;55.05;29.35;;;;;;;;;;1820628;79;21614;-83
2021/01/22 08:03:15;;;;;;;50.83;25.50;;;;;;;;;;1820861;79;21112;-82
2021/01/22 08:05:43;;;;;;;52.78;26.55;;;;;;;;;;1820882;79;21135;-82
2021/01/22 08:08:20;;;;;;;52.10;26.20;;;;;;;;;;1820820;79;21281;-83
2021/01/22 08:10:46;;;;;;;54.40;28.23;;;;;;;;;;1820765;79;21148;-83
2021/01/22 08:13:14;;;;;;;44.95;23.07;;;;;;;;;;1820839;79;21124;-83
2021/01/22 08:15:40;;;;;;;46.55;24.05;;;;;;;;;;1820913;79;21594;-82
2021/01/22 08:18:06;;;;;;;40.85;22.82;;;;;;;;;;1820917;78;21160;-82
2021/01/22 08:20:33;;;;;;;40.40;22.10;;;;;;;;;;1820988;79;21144;-83
2021/01/22 08:22:59;;;;;;;40.10;22.17;;;;;;;;;;1820808;77;21568;-83
2021/01/22 08:25:28;;;;;;;28.02;15.32;;;;;;;;;;1820785;79;21635;-83
2021/01/22 08:27:58;;;;;;;28.87;17.55;;;;;;;;;;1820385;79;21599;-82
2021/01/22 08:30:48;;;;;;;20.97;13.32;;;;;;;;;;1803420;78;21143;-83
2021/01/22 08:33:14;;;;;;;28.92;15.60;;;;;;;;;;1820556;78;21563;-82
2021/01/22 08:35:40;;;;;;;27.98;15.50;;;;;;;;;;1821021;79;21164;-83
2021/01/22 08:38:07;;;;;;;25.85;14.70;;;;;;;;;;1820737;79;21176;-82
2021/01/22 08:40:40;;;;;;;27.42;15.25;;;;;;;;;;1820912;79;21262;-84
2021/01/22 08:43:14;;;;;;;26.60;16.90;;;;;;;;;;1821074;79;21116;-84
2021/01/22 08:45:41;;;;;;;28.47;18.07;;;;;;;;;;1821264;79;21144;-84
2021/01/22 08:48:10;;;;;;;30.15;15.30;;;;;;;;;;1820970;79;21147;-83
2021/01/22 08:50:38;;;;;;;24.50;13.55;;;;;;;;;;1821145;79;21552;-84
2021/01/22 08:53:15;;;;;;;30.90;18.23;;;;;;;;;;1820821;77;21135;-84
2021/01/22 08:55:46;;;;;;;31.97;16.73;;;;;;;;;;1820980;78;21132;-84
2021/01/22 08:58:10;;;;;;;29.50;17.60;;;;;;;;;;1771058;80;21633;-83
2021/01/22 09:00:39;;;;;;;29.75;16.50;;;;;;;;;;1735699;83;21163;-85
2021/01/22 09:03:22;;;;;;;18.40;10.38;;;;;;;;;;1737990;82;21154;-84
2021/01/22 09:05:51;;;;;;;27.67;16.95;;;;;;;;;;1755215;82;21208;-84
2021/01/22 09:08:24;;;;;;;28.75;17.52;;;;;;;;;;1755276;82;21138;-84
2021/01/22 09:10:57;;;;;;;27.37;15.08;;;;;;;;;;1730381;82;21149;-84
2021/01/22 09:13:55;;;;;;;;;;;;;;;;;;;;;
2021/01/22 09:16:34;;;;;;;;;;;;;;;;;;;;;
2021/01/22 09:19:21;;;;;;;28.40;16.67;;;;;;;;;;1753104;81;21157;-86
2021/01/22 09:21:49;;;;;;;26.07;16.25;;;;;;;;;;1741238;81;21179;-83
2021/01/22 09:24:18;;;;;;;25.23;16.32;;;;;;;;;;1716266;83;21134;-83
2021/01/22 09:26:48;;;;;;;29.98;17.02;;;;;;;;;;1650962;83;21170;-85
2021/01/22 09:30:18;;;;;;;28.45;16.82;;;;;;;;;;1737100;81;21132;-83
2021/01/22 09:32:53;;;;;;;;;;;;;;;;;;;;;
2021/01/22 09:35:37;;;;;;;27.67;16.80;;;;;;;;;;1760968;80;21164;-83
2021/01/22 09:38:04;;;;;;;24.12;15.78;;;;;;;;;;1761762;81;21170;-84
2021/01/22 09:40:30;;;;;;;27.17;15.48;;;;;;;;;;1762166;80;21142;-82
2021/01/22 09:42:56;;;;;;;23.60;15.65;;;;;;;;;;1762017;81;21153;-83
2021/01/22 09:45:23;;;;;;;25.10;15.43;;;;;;;;;;1762045;81;21158;-83
2021/01/22 09:47:49;;;;;;;25.20;15.28;;;;;;;;;;1762039;81;21153;-84
2021/01/22 09:50:16;;;;;;;23.52;15.53;;;;;;;;;;1761833;81;21153;-83
2021/01/22 09:52:42;;;;;;;26.62;15.32;;;;;;;;;;1761845;81;21201;-83
2021/01/22 09:55:12;;;;;;;22.32;15.23;;;;;;;;;;1804139;79;21243;-83
2021/01/22 09:57:38;;;;;;;27.48;17.00;;;;;;;;;;1810526;79;21154;-83
2021/01/22 10:00:05;;;;;;;24.20;18.27;;;;;;;;;;1810415;79;21139;-84
2021/01/22 10:02:32;;;;;;;26.75;17.10;;;;;;;;;;1810384;79;21141;-83
2021/01/22 10:05:00;;;;;;;27.50;18.48;;;;;;;;;;1810503;79;21142;-82
2021/01/22 10:07:27;;;;;;;28.87;18.05;;;;;;;;;;1810305;79;21538;-82
2021/01/22 10:09:53;;;;;;;30.15;19.92;;;;;;;;;;1810623;79;21170;-83
2021/01/22 10:12:20;;;;;;;25.75;18.98;;;;;;;;;;1810422;78;21577;-84
2021/01/22 10:14:47;;;;;;;21.65;16.60;;;;;;;;;;1810371;79;21612;-84
2021/01/22 10:17:13;;;;;;;24.07;17.95;;;;;;;;;;1810623;79;21744;-83
2021/01/22 10:19:39;;;;;;;24.65;18.10;;;;;;;;;;1810305;79;21145;-83
2021/01/22 10:22:06;;;;;;;25.37;19.32;;;;;;;;;;1810356;79;21125;-83
2021/01/22 10:24:32;;;;;;;25.37;19.37;;;;;;;;;;1810589;79;21138;-82
2021/01/22 10:26:58;;;;;;;22.62;18.73;;;;;;;;;;1810195;79;21177;-83
2021/01/22 10:29:24;;;;;;;24.37;19.48;;;;;;;;;;1810549;79;21194;-83
2021/01/22 10:31:51;;;;;;;26.50;18.62;;;;;;;;;;1810375;79;21137;-83
2021/01/22 10:34:17;;;;;;;24.45;19.82;;;;;;;;;;1810387;79;21578;-83
2021/01/22 10:36:43;;;;;;;27.90;21.70;;;;;;;;;;1810534;79;21558;-82
2021/01/22 10:39:10;;;;;;;24.65;19.50;;;;;;;;;;1810529;79;21153;-83
2021/01/22 10:41:37;;;;;;;26.25;19.12;;;;;;;;;;1810211;78;21166;-83
2021/01/22 10:44:04;;;;;;;26.55;20.70;;;;;;;;;;1810344;79;21153;-84
2021/01/22 10:46:31;;;;;;;27.82;21.00;;;;;;;;;;1810369;79;21153;-83
2021/01/22 10:49:07;;;;;;;26.30;20.00;;;;;;;;;;1810357;79;21181;-84
2021/01/22 10:51:34;;;;;;;26.73;22.82;;;;;;;;;;1794937;79;28574;-85
2021/01/22 10:54:01;;;;;;;23.50;20.88;;;;;;;;;;1810642;79;21158;-82
2021/01/22 10:56:30;;;;;;;26.70;22.45;;;;;;;;;;1810975;79;21146;-84
2021/01/22 10:58:56;;;;;;;22.67;20.23;;;;;;;;;;1811244;79;21278;-83
2021/01/22 11:01:25;;;;;;;28.75;21.30;;;;;;;;;;1810904;79;21189;-83
2021/01/22 11:03:51;;;;;;;22.65;19.52;;;;;;;;;;1810920;79;21153;-83
2021/01/22 11:06:18;;;;;;;22.35;19.87;;;;;;;;;;1811094;79;21154;-83
2021/01/22 11:08:55;;;;;;;25.10;20.20;;;;;;;;;;1811385;79;21538;-83
2021/01/22 11:11:23;;;;;;;25.15;20.52;;;;;;;;;;1798407;78;21176;-82
2021/01/22 11:13:52;;;;;;;23.87;20.62;;;;;;;;;;1810949;79;21284;-83
2021/01/22 11:16:21;;;;;;;24.25;20.97;;;;;;;;;;1810813;79;21603;-83
2021/01/22 11:18:47;;;;;;;24.82;20.65;;;;;;;;;;1810763;79;21165;-83
2021/01/22 11:21:17;;;;;;;22.85;19.82;;;;;;;;;;1811044;79;21137;-83
2021/01/22 11:23:43;;;;;;;22.10;19.77;;;;;;;;;;1810961;79;21161;-84
2021/01/22 11:26:12;;;;;;;23.67;21.15;;;;;;;;;;1811014;79;21173;-84
2021/01/22 11:28:38;;;;;;;23.50;20.43;;;;;;;;;;1810898;79;21351;-84
2021/01/22 11:31:16;;;;;;;22.22;19.23;;;;;;;;;;1810985;79;21138;-84
2021/01/22 11:34:00;;;;;;;22.50;18.62;;;;;;;;;;1810909;79;21133;-82
2021/01/22 11:36:26;;;;;;;22.15;18.85;;;;;;;;;;1810870;79;21267;-82
2021/01/22 11:38:52;;;;;;;21.40;19.05;;;;;;;;;;1810838;79;21280;-83
2021/01/22 11:41:18;;;;;;;20.75;18.55;;;;;;;;;;1810821;78;21182;-83
2021/01/22 11:43:45;;;;;;;19.35;16.48;;;;;;;;;;1810850;79;21140;-83
2021/01/22 11:46:11;;;;;;;18.77;16.77;;;;;;;;;;1810765;79;21714;-82
2021/01/22 11:48:39;;;;;;;20.30;16.35;;;;;;;;;;1810854;79;21161;-83
2021/01/22 11:51:05;;;;;;;19.62;16.40;;;;;;;;;;1810890;79;21597;-81
2021/01/22 11:53:32;;;;;;;19.07;16.32;;;;;;;;;;1811209;79;21150;-83
2021/01/22 11:55:58;;;;;;;21.62;16.48;;;;;;;;;;1811257;79;21193;-84
2021/01/22 11:58:24;;;;;;;22.98;16.12;;;;;;;;;;1811000;79;21166;-83
2021/01/22 12:00:50;;;;;;;19.75;15.03;;;;;;;;;;1810866;79;21177;-83
2021/01/22 12:03:17;;;;;;;19.15;15.63;;;;;;;;;;1810974;79;21170;-82
2021/01/22 12:05:43;;;;;;;22.30;15.30;;;;;;;;;;1811055;79;21546;-82
2021/01/22 12:08:14;;;;;;;21.45;16.50;;;;;;;;;;1811108;79;21145;-83
2021/01/22 12:10:37;;;;;;;22.27;16.10;;;;;;;;;;1810659;79;21138;-82
2021/01/22 12:13:03;;;;;;;23.32;17.23;;;;;;;;;;1811377;79;21577;-83
2021/01/22 12:15:30;;;;;;;24.05;16.85;;;;;;;;;;1811146;79;21142;-83
2021/01/22 12:18:02;;;;;;;23.77;16.62;;;;;;;;;;1810898;79;21160;-82
2021/01/22 12:20:35;;;;;;;22.10;16.23;;;;;;;;;;1811506;79;21161;-83
2021/01/22 12:23:01;;;;;;;22.02;15.63;;;;;;;;;;1811223;79;21158;-82
2021/01/22 12:25:28;;;;;;;23.95;16.02;;;;;;;;;;1811130;79;21169;-81
2021/01/22 12:27:54;;;;;;;24.55;16.20;;;;;;;;;;1810958;79;21126;-82
2021/01/22 12:30:21;;;;;;;23.10;15.90;;;;;;;;;;1811251;79;21148;-82
2021/01/22 12:32:47;;;;;;;20.52;14.95;;;;;;;;;;1811325;79;21148;-83
2021/01/22 12:35:15;;;;;;;22.62;16.25;;;;;;;;;;1811193;79;21153;-82
2021/01/22 12:37:41;;;;;;;21.40;15.50;;;;;;;;;;1811214;79;21156;-82
2021/01/22 12:40:08;;;;;;;24.12;16.30;;;;;;;;;;1811046;79;21158;-83
2021/01/22 12:42:34;;;;;;;28.17;16.85;;;;;;;;;;1810863;78;21585;-82
2021/01/22 12:45:00;;;;;;;27.45;15.65;;;;;;;;;;1811130;79;21169;-84
2021/01/22 12:47:26;;;;;;;26.15;16.15;;;;;;;;;;1811194;79;21145;-82
2021/01/22 12:49:53;;;;;;;24.37;15.85;;;;;;;;;;1811002;79;21162;-81
2021/01/22 12:52:19;;;;;;;24.67;16.20;;;;;;;;;;1810868;79;21311;-82
2021/01/22 12:54:47;;;;;;;26.95;16.30;;;;;;;;;;1810605;79;21553;-84
2021/01/22 12:57:13;;;;;;;24.32;17.12;;;;;;;;;;1810348;79;21173;-84
2021/01/22 12:59:39;;;;;;;26.70;16.50;;;;;;;;;;1810603;79;21318;-83
2021/01/22 13:02:06;;;;;;;25.65;17.73;;;;;;;;;;1810397;79;21593;-82
2021/01/22 13:04:32;;;;;;;24.85;16.67;;;;;;;;;;1810345;79;21118;-83
2021/01/22 13:07:02;;;;;;;25.85;17.00;;;;;;;;;;1810636;79;21308;-82
2021/01/22 13:09:27;;;;;;;29.67;17.48;;;;;;;;;;1810182;79;21141;-82
2021/01/22 13:11:54;;;;;;;29.80;18.05;;;;;;;;;;1810468;78;21212;-81
2021/01/22 13:14:20;;;;;;;29.42;18.87;;;;;;;;;;1810450;79;21227;-82
2021/01/22 13:16:49;;;;;;;26.68;17.80;;;;;;;;;;1810346;79;21141;-84
2021/01/22 13:19:18;;;;;;;28.42;17.30;;;;;;;;;;1810318;79;21142;-82
2021/01/22 13:21:45;;;;;;;31.07;16.87;;;;;;;;;;1810062;79;21186;-82
2021/01/22 13:24:11;;;;;;;26.00;16.57;;;;;;;;;;1810796;79;21146;-82
2021/01/22 13:26:38;;;;;;;24.95;16.77;;;;;;;;;;1810433;79;21170;-83
2021/01/22 13:29:06;;;;;;;30.27;18.50;;;;;;;;;;1810310;79;21558;-83
2021/01/22 13:31:32;;;;;;;35.38;20.43;;;;;;;;;;1810363;79;21573;-81
2021/01/22 13:33:58;;;;;;;34.10;19.32;;;;;;;;;;1810519;79;21173;-81
2021/01/22 13:36:25;;;;;;;34.08;20.37;;;;;;;;;;1810347;79;21118;-82
2021/01/22 13:38:54;;;;;;;31.77;19.40;;;;;;;;;;1810417;79;21149;-82
2021/01/22 13:41:20;;;;;;;31.57;20.90;;;;;;;;;;1810524;78;21553;-83
2021/01/22 13:43:46;;;;;;;35.08;21.90;;;;;;;;;;1810216;79;21173;-83
2021/01/22 13:46:12;;;;;;;32.03;21.33;;;;;;;;;;1810300;79;21561;-83
2021/01/22 13:48:39;;;;;;;38.02;20.72;;;;;;;;;;1810477;79;21169;-83
2021/01/22 13:51:05;;;;;;;33.25;20.50;;;;;;;;;;1810588;79;21145;-83
2021/01/22 13:53:33;;;;;;;33.83;21.17;;;;;;;;;;1810195;79;21168;-82
2021/01/22 13:55:59;;;;;;;35.43;20.95;;;;;;;;;;1810383;79;21177;-82
2021/01/22 13:58:26;;;;;;;31.65;20.57;;;;;;;;;;1810330;79;21143;-83
2021/01/22 14:00:52;;;;;;;31.50;20.50;;;;;;;;;;1810254;79;21593;-82
2021/01/22 14:03:19;;;;;;;33.67;20.27;;;;;;;;;;1810202;79;21141;-84
2021/01/22 14:05:46;;;;;;;31.97;20.00;;;;;;;;;;1810300;79;21126;-83
2021/01/22 14:08:12;;;;;;;33.58;19.75;;;;;;;;;;1810386;79;21181;-83
2021/01/22 14:10:38;;;;;;;34.53;22.02;;;;;;;;;;1810285;79;21201;-84
2021/01/22 14:13:04;;;;;;;34.73;21.62;;;;;;;;;;1810282;78;21146;-84
2021/01/22 14:15:30;;;;;;;39.03;22.50;;;;;;;;;;1810381;79;21141;-83
2021/01/22 14:17:56;;;;;;;36.88;22.02;;;;;;;;;;1810437;79;21153;-83
2021/01/22 14:20:27;;;;;;;35.05;20.75;;;;;;;;;;1810368;79;21141;-83
2021/01/22 14:22:52;;;;;;;35.63;20.75;;;;;;;;;;1809446;79;21561;-83